createdAt,value
2022-08-17T00:01:31.461Z,40.65
2022-08-17T00:04:19.104Z,40.92
2022-08-17T00:06:45.890Z,42.72
2022-08-17T00:09:15.397Z,38.28
2022-08-17T00:12:03.889Z,39.20
2022-08-17T00:14:36.047Z,38.00
2022-08-17T00:17:04.693Z,38.97
2022-08-17T00:19:32.662Z,38.17
2022-08-17T00:24:47.344Z,38.08
2022-08-17T00:27:13.856Z,40.88
2022-08-17T00:29:40.649Z,42.72
2022-08-17T00:33:22.894Z,38.95
2022-08-17T00:34:53.766Z,41.17
2022-08-17T00:37:20.255Z,40.63
2022-08-17T00:39:46.826Z,38.65
2022-08-17T00:42:19.185Z,38.50
2022-08-17T00:44:46.208Z,38.88
2022-08-17T00:47:13.423Z,35.15
2022-08-17T00:49:40.062Z,37.90
2022-08-17T00:52:15.582Z,36.67
2022-08-17T00:54:46.994Z,36.50
2022-08-17T00:57:22.018Z,35.47
2022-08-17T00:59:56.063Z,35.10
2022-08-17T01:02:40.454Z,36.83
2022-08-17T01:05:18.857Z,33.45
2022-08-17T01:07:47.953Z,33.65
2022-08-17T01:10:57.566Z,33.03
2022-08-17T01:13:03.283Z,33.90
2022-08-17T01:15:32.013Z,37.63
2022-08-17T01:17:58.686Z,35.45
2022-08-17T01:20:25.384Z,34.63
2022-08-17T01:22:53.140Z,34.30
2022-08-17T01:25:21.365Z,33.45
2022-08-17T01:27:49.168Z,30.33
2022-08-17T01:30:58.300Z,29.63
2022-08-17T01:33:02.633Z,31.08
2022-08-17T01:35:29.297Z,29.92
2022-08-17T01:37:55.951Z,30.23
2022-08-17T01:40:37.810Z,28.88
2022-08-17T01:43:11.943Z,28.38
2022-08-17T01:45:46.005Z,26.75
2022-08-17T01:50:41.910Z,34.50
2022-08-17T01:53:18.249Z,34.45
2022-08-17T01:55:53.390Z,34.53
2022-08-17T01:58:20.612Z,39.58
2022-08-17T02:01:00.962Z,38.85
2022-08-17T02:03:29.387Z,40.17
2022-08-17T02:08:37.205Z,36.80
2022-08-17T02:11:11.663Z,38.00
2022-08-17T02:13:38.586Z,39.28
2022-08-17T02:16:05.986Z,36.13
2022-08-17T02:18:32.649Z,35.33
2022-08-17T02:20:59.223Z,36.70
2022-08-17T02:23:30.458Z,35.05
2022-08-17T02:25:59.482Z,34.47
2022-08-17T02:28:28.356Z,35.53
2022-08-17T02:31:01.106Z,35.08
2022-08-17T02:33:41.667Z,34.55
2022-08-17T02:36:12.790Z,30.17
2022-08-17T02:38:40.711Z,26.00
2022-08-17T02:41:08.313Z,27.40
2022-08-17T02:43:35.758Z,29.85
2022-08-17T02:46:02.360Z,31.95
2022-08-17T02:48:31.578Z,27.58
2022-08-17T02:50:59.480Z,27.30
2022-08-17T02:53:26.116Z,27.40
2022-08-17T02:55:53.087Z,28.40
2022-08-17T02:58:35.114Z,27.98
2022-08-17T03:01:04.301Z,28.80
2022-08-17T03:03:30.858Z,30.00
2022-08-17T03:05:57.536Z,30.45
2022-08-17T03:08:25.479Z,28.35
2022-08-17T03:10:52.522Z,25.15
2022-08-17T03:13:19.482Z,30.73
2022-08-17T03:15:47.399Z,26.58
2022-08-17T03:20:55.871Z,27.35
2022-08-17T03:23:25.303Z,26.60
2022-08-17T03:25:54.002Z,25.55
2022-08-17T03:28:22.271Z,27.67
2022-08-17T03:30:49.200Z,28.80
2022-08-17T03:33:16.240Z,25.90
2022-08-17T03:35:43.247Z,29.30
2022-08-17T03:38:11.320Z,27.38
2022-08-17T03:40:57.765Z,27.35
2022-08-17T03:43:28.470Z,27.60
2022-08-17T03:46:27.775Z,27.88
2022-08-17T03:49:17.569Z,24.77
2022-08-17T03:52:02.916Z,25.40
2022-08-17T03:54:47.968Z,23.88
2022-08-17T03:57:14.746Z,24.65
2022-08-17T03:59:41.722Z,24.70
2022-08-17T04:02:11.793Z,22.40
2022-08-17T04:04:38.594Z,20.55
2022-08-17T04:07:05.679Z,20.08
2022-08-17T04:09:32.329Z,17.90
2022-08-17T04:12:02.268Z,17.50
2022-08-17T04:14:39.273Z,17.95
2022-08-17T04:17:21.679Z,19.02
2022-08-17T04:25:16.365Z,16.85
2022-08-17T04:27:43.076Z,18.63
2022-08-17T04:30:10.336Z,17.88
2022-08-17T04:33:06.270Z,19.00
2022-08-17T04:35:40.157Z,17.27
2022-08-17T04:38:09.393Z,18.27
2022-08-17T04:40:55.162Z,19.75
2022-08-17T04:43:24.922Z,19.40
2022-08-17T04:45:55.212Z,19.70
2022-08-17T04:48:29.754Z,21.08
2022-08-17T04:51:05.866Z,20.77
2022-08-17T04:53:32.600Z,18.17
2022-08-17T04:55:59.304Z,21.75
2022-08-17T04:58:25.804Z,24.30
2022-08-17T05:00:52.531Z,25.48
2022-08-17T05:05:49.887Z,23.58
2022-08-17T05:08:19.063Z,23.73
2022-08-17T05:10:46.163Z,22.85
2022-08-17T05:13:19.698Z,21.40
2022-08-17T05:15:48.224Z,19.92
2022-08-17T05:18:16.813Z,21.75
2022-08-17T05:20:43.471Z,19.50
2022-08-17T05:23:13.823Z,21.63
2022-08-17T05:25:46.244Z,22.00
2022-08-17T05:28:19.064Z,21.15
2022-08-17T05:30:50.845Z,17.55
2022-08-17T05:33:26.709Z,19.45
2022-08-17T05:35:55.747Z,20.02
2022-08-17T05:38:25.126Z,19.88
2022-08-17T05:40:53.260Z,15.90
2022-08-17T05:43:27.854Z,20.25
2022-08-17T05:46:06.323Z,17.90
2022-08-17T05:48:45.913Z,16.60
2022-08-17T05:51:24.828Z,14.93
2022-08-17T05:54:07.406Z,14.65
2022-08-17T05:56:52.622Z,13.32
2022-08-17T05:59:43.927Z,14.23
2022-08-17T06:02:29.110Z,14.65
2022-08-17T06:05:23.479Z,14.30
2022-08-17T06:08:00.244Z,13.57
2022-08-17T06:11:04.675Z,14.35
2022-08-17T06:14:10.664Z,15.25
2022-08-17T06:16:41.291Z,15.55
2022-08-17T06:19:35.231Z,14.32
2022-08-17T06:22:03.379Z,12.63
2022-08-17T06:24:56.851Z,16.70
2022-08-17T06:27:36.164Z,13.73
2022-08-17T06:30:14.123Z,12.63
2022-08-17T06:32:45.829Z,13.98
2022-08-17T06:35:15.781Z,14.45
2022-08-17T06:37:54.717Z,15.85
2022-08-17T06:40:27.455Z,13.10
2022-08-17T06:43:10.923Z,14.88
2022-08-17T06:45:49.411Z,16.00
2022-08-17T06:48:33.325Z,14.35
2022-08-17T06:51:29.824Z,15.07
2022-08-17T06:54:05.434Z,15.27
2022-08-17T06:56:53.927Z,15.57
2022-08-17T06:59:54.444Z,17.02
2022-08-17T07:02:51.253Z,17.88
2022-08-17T07:05:22.643Z,16.90
2022-08-17T07:08:09.283Z,17.48
2022-08-17T07:10:42.662Z,17.17
2022-08-17T07:13:51.597Z,20.10
2022-08-17T07:16:41.568Z,18.83
2022-08-17T07:19:10.922Z,20.05
2022-08-17T07:21:52.446Z,19.92
2022-08-17T07:24:43.261Z,16.42
2022-08-17T07:27:12.844Z,21.13
2022-08-17T07:29:50.656Z,19.90
2022-08-17T07:32:23.365Z,20.42
2022-08-17T07:35:31.382Z,22.98
2022-08-17T07:38:24.749Z,21.90
2022-08-17T07:41:01.968Z,22.65
2022-08-17T07:43:37.127Z,24.00
2022-08-17T07:46:34.189Z,25.17
2022-08-17T07:49:03.465Z,25.02
2022-08-17T07:51:33.381Z,27.02
2022-08-17T07:54:13.942Z,28.75
2022-08-17T07:56:51.218Z,26.08
2022-08-17T07:59:18.191Z,26.88
2022-08-17T08:01:57.612Z,24.67
2022-08-17T08:04:59.282Z,34.85
2022-08-17T08:07:26.772Z,32.60
2022-08-17T08:10:08.666Z,24.75
2022-08-17T08:12:46.963Z,24.30
2022-08-17T08:15:21.429Z,26.35
2022-08-17T08:18:03.781Z,24.48
2022-08-17T08:20:51.236Z,18.65
2022-08-17T08:23:31.481Z,19.15
2022-08-17T08:26:27.014Z,17.95
2022-08-17T08:29:08.623Z,15.73
2022-08-17T08:32:20.497Z,14.60
2022-08-17T08:35:06.706Z,14.77
2022-08-17T08:38:11.114Z,14.43
2022-08-17T08:41:07.711Z,14.02
2022-08-17T08:43:52.976Z,13.40
2022-08-17T08:46:31.654Z,13.98
2022-08-17T08:48:59.602Z,16.08
2022-08-17T08:51:40.393Z,19.33
2022-08-17T08:54:27.021Z,15.38
2022-08-17T08:57:23.146Z,16.77
2022-08-17T09:00:15.466Z,14.73
2022-08-17T09:02:50.990Z,15.30
2022-08-17T09:05:23.466Z,14.95
2022-08-17T09:08:02.088Z,13.43
2022-08-17T09:10:41.263Z,13.02
2022-08-17T09:13:16.294Z,12.45
2022-08-17T09:15:47.310Z,12.13
2022-08-17T09:19:01.893Z,10.68
2022-08-17T09:21:21.545Z,11.77
2022-08-17T09:24:00.160Z,16.95
2022-08-17T09:26:40.075Z,12.60
2022-08-17T09:29:09.959Z,11.93
2022-08-17T09:31:58.329Z,13.55
2022-08-17T09:34:54.851Z,14.05
2022-08-17T09:37:35.580Z,13.50
2022-08-17T09:40:24.261Z,13.90
2022-08-17T09:42:56.424Z,15.20
2022-08-17T09:45:40.561Z,15.65
2022-08-17T09:48:32.715Z,19.15
2022-08-17T09:51:24.492Z,17.70
2022-08-17T09:53:51.390Z,17.70
2022-08-17T09:56:27.249Z,18.80
2022-08-17T09:59:08.997Z,17.90
2022-08-17T10:01:53.499Z,18.10
2022-08-17T10:04:32.671Z,19.08
2022-08-17T10:07:22.664Z,16.58
2022-08-17T10:09:49.211Z,17.48
2022-08-17T10:12:34.182Z,16.25
2022-08-17T10:15:18.940Z,17.58
2022-08-17T10:18:04.037Z,16.00
2022-08-17T10:21:14.898Z,15.95
2022-08-17T10:24:01.246Z,13.73
2022-08-17T10:26:46.266Z,16.70
2022-08-17T10:29:24.842Z,14.18
2022-08-17T10:32:01.591Z,13.70
2022-08-17T10:35:14.616Z,13.50
2022-08-17T10:37:44.181Z,13.48
2022-08-17T10:40:26.475Z,14.60
2022-08-17T10:43:34.712Z,13.85
2022-08-17T10:46:30.407Z,14.38
2022-08-17T10:49:18.406Z,17.73
2022-08-17T10:51:57.068Z,16.10
2022-08-17T10:55:01.194Z,17.38
2022-08-17T10:57:31.769Z,17.02
2022-08-17T11:00:03.455Z,51.10
2022-08-17T11:02:45.777Z,17.55
2022-08-17T11:05:43.857Z,17.38
2022-08-17T11:08:18.694Z,18.20
2022-08-17T11:11:10.826Z,19.35
2022-08-17T11:13:49.219Z,17.15
2022-08-17T11:16:24.325Z,19.17
2022-08-17T11:19:21.301Z,19.27
2022-08-17T11:22:06.035Z,20.10
2022-08-17T11:24:51.316Z,22.80
2022-08-17T11:27:34.088Z,21.90
2022-08-17T11:30:41.366Z,21.65
2022-08-17T11:33:44.741Z,22.02
2022-08-17T11:36:37.390Z,23.13
2022-08-17T11:39:22.058Z,25.02
2022-08-17T11:42:00.863Z,29.67
2022-08-17T11:44:42.019Z,27.73
2022-08-17T11:47:34.867Z,26.55
2022-08-17T11:50:38.712Z,28.63
2022-08-17T11:53:06.035Z,29.80
2022-08-17T11:55:38.496Z,28.33
2022-08-17T11:58:27.015Z,27.17
2022-08-17T12:00:57.452Z,30.67
2022-08-17T12:03:32.133Z,31.85
2022-08-17T12:06:04.758Z,29.88
2022-08-17T12:08:33.878Z,29.30
2022-08-17T12:11:06.408Z,32.80
2022-08-17T12:14:03.288Z,29.90
2022-08-17T12:16:29.948Z,30.48
2022-08-17T12:18:59.893Z,31.48
2022-08-17T12:21:40.585Z,31.17
2022-08-17T12:24:20.849Z,32.42
2022-08-17T12:26:58.210Z,33.85
2022-08-17T12:29:38.594Z,30.83
2022-08-17T12:32:07.591Z,29.73
2022-08-17T12:34:36.565Z,30.00
2022-08-17T12:37:07.949Z,30.83
2022-08-17T12:39:34.765Z,32.97
2022-08-17T12:42:02.774Z,32.15
2022-08-17T12:44:33.808Z,31.25
2022-08-17T12:47:22.183Z,32.95
2022-08-17T12:49:52.879Z,30.67
2022-08-17T12:52:19.393Z,32.70
2022-08-17T12:54:59.608Z,32.72
2022-08-17T12:57:33.715Z,32.53
2022-08-17T13:00:15.737Z,32.65
2022-08-17T13:02:44.654Z,31.50
2022-08-17T13:05:28.994Z,32.75
2022-08-17T13:07:58.860Z,31.25
2022-08-17T13:10:33.391Z,29.23
2022-08-17T13:13:06.004Z,31.50
2022-08-17T13:15:44.786Z,30.73
2022-08-17T13:18:39.012Z,34.25
2022-08-17T13:21:27.566Z,26.67
2022-08-17T13:24:13.764Z,30.17
2022-08-17T13:26:44.209Z,34.42
2022-08-17T13:29:33.553Z,34.15
2022-08-17T13:32:13.069Z,36.30
2022-08-17T13:35:07.816Z,34.97
2022-08-17T13:37:35.685Z,35.47
2022-08-17T13:40:02.406Z,37.10
2022-08-17T13:42:52.204Z,37.28
2022-08-17T13:45:36.768Z,37.47
2022-08-17T13:48:26.766Z,36.75
2022-08-17T13:50:56.055Z,37.60
2022-08-17T13:53:31.162Z,35.10
2022-08-17T13:56:37.587Z,39.10
2022-08-17T13:59:53.421Z,33.90
2022-08-17T14:02:13.477Z,37.75
2022-08-17T14:04:44.033Z,31.75
2022-08-17T14:07:11.564Z,37.13
2022-08-17T14:09:40.930Z,35.08
2022-08-17T14:12:13.576Z,38.15
2022-08-17T14:14:42.626Z,38.47
2022-08-17T14:17:10.043Z,31.40
2022-08-17T14:19:37.891Z,34.83
2022-08-17T14:24:35.112Z,32.70
2022-08-17T14:27:03.587Z,34.15
2022-08-17T14:29:33.173Z,36.05
2022-08-17T14:32:07.957Z,34.33
2022-08-17T14:34:34.642Z,33.55
2022-08-17T14:37:01.142Z,34.05
2022-08-17T14:39:28.737Z,32.63
2022-08-17T14:41:56.107Z,33.22
2022-08-17T14:44:22.559Z,33.20
2022-08-17T14:46:50.603Z,31.35
2022-08-17T14:49:20.650Z,31.50
2022-08-17T14:51:47.424Z,30.88
2022-08-17T14:54:33.710Z,31.55
2022-08-17T14:57:22.362Z,30.67
2022-08-17T14:59:51.710Z,32.33
2022-08-17T15:05:04.258Z,29.42
2022-08-17T15:10:01.495Z,32.35
2022-08-17T15:12:33.090Z,30.92
2022-08-17T15:15:04.804Z,31.27
2022-08-17T15:17:44.191Z,31.70
2022-08-17T15:20:28.084Z,32.60
2022-08-17T15:22:57.249Z,30.08
2022-08-17T15:25:26.137Z,29.27
2022-08-17T15:27:54.024Z,30.02
2022-08-17T15:32:54.701Z,31.15
2022-08-17T15:35:29.167Z,29.98
2022-08-17T15:38:06.270Z,31.58
2022-08-17T15:40:38.741Z,30.83
2022-08-17T15:43:08.124Z,30.08
2022-08-17T15:45:35.289Z,29.10
2022-08-17T15:48:02.033Z,28.05
2022-08-17T15:50:28.617Z,28.70
2022-08-17T15:52:59.796Z,26.83
2022-08-17T15:55:29.304Z,26.60
2022-08-17T15:57:55.802Z,25.63
2022-08-17T16:00:24.061Z,24.48
2022-08-17T16:03:13.819Z,22.75
2022-08-17T16:05:37.711Z,21.98
2022-08-17T16:08:07.550Z,20.55
2022-08-17T16:10:35.024Z,22.35
2022-08-17T16:13:03.451Z,24.33
2022-08-17T16:15:31.601Z,22.48
2022-08-17T16:17:58.381Z,20.20
2022-08-17T16:20:24.873Z,22.27
2022-08-17T16:22:51.655Z,22.52
2022-08-17T16:25:22.921Z,21.50
2022-08-17T16:28:09.427Z,23.88
2022-08-17T16:30:37.470Z,24.75
2022-08-17T16:33:04.087Z,24.85
2022-08-17T16:35:30.620Z,24.23
2022-08-17T16:37:58.387Z,25.15
2022-08-17T16:40:28.991Z,25.92
2022-08-17T16:42:57.695Z,26.17
2022-08-17T16:45:40.514Z,26.88
2022-08-17T16:48:08.072Z,27.83
2022-08-17T16:50:35.129Z,26.02
2022-08-17T16:53:10.940Z,26.50
2022-08-17T16:55:38.200Z,26.08
2022-08-17T16:58:06.338Z,29.48
2022-08-17T17:00:33.774Z,27.50
2022-08-17T17:03:19.462Z,27.70
2022-08-17T17:08:31.355Z,29.65
2022-08-17T17:11:03.875Z,29.60
2022-08-17T17:13:50.262Z,32.47
2022-08-17T17:16:28.890Z,32.95
2022-08-17T17:19:09.109Z,30.13
2022-08-17T17:21:55.986Z,30.23
2022-08-17T17:24:42.035Z,31.70
2022-08-17T17:27:18.447Z,31.08
2022-08-17T17:30:03.772Z,30.73
2022-08-17T17:32:49.497Z,31.88
2022-08-17T17:35:24.036Z,31.58
2022-08-17T17:37:52.920Z,34.80
2022-08-17T17:40:23.916Z,33.03
2022-08-17T17:42:53.658Z,32.88
2022-08-17T17:45:23.911Z,32.45
2022-08-17T17:47:50.740Z,32.58
2022-08-17T17:50:19.969Z,36.45
2022-08-17T17:53:11.277Z,35.00
2022-08-17T17:56:43.248Z,33.38
2022-08-17T17:59:24.195Z,37.15
2022-08-17T18:02:51.624Z,35.65
2022-08-17T18:05:39.056Z,34.20
2022-08-17T18:08:11.327Z,34.85
2022-08-17T18:10:50.788Z,34.63
2022-08-17T18:13:54.928Z,33.63
2022-08-17T18:16:22.592Z,34.35
2022-08-17T18:18:52.417Z,34.80
2022-08-17T18:21:24.258Z,34.10
2022-08-17T18:23:53.823Z,34.50
2022-08-17T18:26:43.801Z,33.40
2022-08-17T18:29:26.133Z,33.70
2022-08-17T18:32:13.368Z,38.50
2022-08-17T18:34:48.568Z,37.53
2022-08-17T18:37:31.797Z,37.92
2022-08-17T18:39:58.593Z,37.58
2022-08-17T18:42:28.219Z,37.35
2022-08-17T18:44:55.746Z,40.75
2022-08-17T18:47:28.570Z,37.55
2022-08-17T18:50:25.883Z,39.35
2022-08-17T18:52:52.839Z,41.60
2022-08-17T18:55:22.957Z,40.47
2022-08-17T18:57:56.847Z,41.55
2022-08-17T19:00:26.452Z,41.90
2022-08-17T19:02:56.796Z,43.40
2022-08-17T19:05:37.150Z,43.92
2022-08-17T19:08:18.725Z,48.22
2022-08-17T19:10:51.752Z,42.50
2022-08-17T19:13:28.964Z,46.00
2022-08-17T19:16:14.206Z,47.35
2022-08-17T19:19:14.571Z,42.22
2022-08-17T19:21:53.210Z,43.30
2022-08-17T19:24:23.007Z,42.92
2022-08-17T19:27:07.999Z,46.13
2022-08-17T19:29:51.414Z,41.45
2022-08-17T19:32:24.416Z,48.92
2022-08-17T19:34:51.177Z,43.85
2022-08-17T19:37:23.451Z,42.47
2022-08-17T19:40:52.461Z,40.80
2022-08-17T19:44:01.107Z,45.85
2022-08-17T19:46:39.176Z,41.58
2022-08-17T19:49:32.936Z,43.33
2022-08-17T19:52:30.526Z,44.05
2022-08-17T19:55:04.787Z,37.75
2022-08-17T19:57:56.373Z,39.72
2022-08-17T20:00:23.412Z,41.65
2022-08-17T20:03:05.941Z,39.28
2022-08-17T20:06:08.706Z,39.22
2022-08-17T20:08:29.042Z,39.55
2022-08-17T20:11:31.641Z,39.78
2022-08-17T20:14:32.831Z,36.50
2022-08-17T20:17:02.619Z,36.08
2022-08-17T20:19:37.786Z,34.55
2022-08-17T20:22:10.933Z,37.35
2022-08-17T20:24:57.830Z,37.13
2022-08-17T20:27:33.216Z,37.13
2022-08-17T20:30:12.051Z,36.53
2022-08-17T20:32:48.583Z,37.10
2022-08-17T20:35:15.027Z,36.83
2022-08-17T20:37:44.769Z,37.17
2022-08-17T20:40:19.204Z,38.80
2022-08-17T20:42:45.907Z,35.70
2022-08-17T20:45:21.460Z,35.72
2022-08-17T20:48:18.601Z,37.17
2022-08-17T20:50:43.781Z,34.03
2022-08-17T20:53:15.219Z,34.17
2022-08-17T20:55:52.573Z,34.40
2022-08-17T20:58:30.955Z,38.38
2022-08-17T21:00:57.883Z,33.42
2022-08-17T21:03:24.464Z,37.88
2022-08-17T21:05:53.493Z,37.22
2022-08-17T21:08:34.271Z,35.55
2022-08-17T21:12:02.797Z,33.85
2022-08-17T21:14:36.662Z,34.42
2022-08-17T21:17:33.575Z,33.70
2022-08-17T21:20:11.772Z,32.00
2022-08-17T21:23:06.868Z,33.30
2022-08-17T21:25:49.077Z,35.60
2022-08-17T21:28:33.973Z,31.35
2022-08-17T21:31:08.513Z,32.55
2022-08-17T21:33:39.605Z,38.63
2022-08-17T21:36:12.282Z,31.73
2022-08-17T21:38:47.980Z,32.60
2022-08-17T21:41:34.155Z,28.05
2022-08-17T21:44:18.079Z,31.38
2022-08-17T21:46:47.318Z,28.52
2022-08-17T21:49:17.739Z,27.83
2022-08-17T21:51:54.275Z,27.98
2022-08-17T21:54:26.858Z,26.95
2022-08-17T21:56:53.788Z,26.85
2022-08-17T21:59:30.586Z,27.08
2022-08-17T22:02:03.135Z,26.40
2022-08-17T22:04:31.445Z,26.92
2022-08-17T22:07:01.235Z,27.02
2022-08-17T22:09:34.371Z,23.40
2022-08-17T22:12:00.903Z,23.90
2022-08-17T22:14:52.960Z,22.85
2022-08-17T22:17:25.151Z,26.45
2022-08-17T22:20:08.895Z,24.02
2022-08-17T22:23:16.590Z,25.00
2022-08-17T22:26:04.517Z,22.85
2022-08-17T22:28:43.339Z,23.65
2022-08-17T22:31:14.664Z,24.15
2022-08-17T22:34:13.702Z,20.83
2022-08-17T22:36:41.882Z,21.73
2022-08-17T22:39:08.365Z,25.63
2022-08-17T22:41:48.153Z,24.05
2022-08-17T22:44:35.587Z,19.90
2022-08-17T22:47:18.722Z,20.27
2022-08-17T22:49:58.787Z,20.02
2022-08-17T22:53:01.473Z,20.70
2022-08-17T22:56:10.062Z,19.83
2022-08-17T22:59:02.420Z,22.05
2022-08-17T23:04:02.378Z,25.15
2022-08-17T23:06:30.025Z,19.58
2022-08-17T23:08:58.066Z,20.90
2022-08-17T23:11:42.960Z,19.40
2022-08-17T23:14:19.161Z,18.38
2022-08-17T23:16:46.350Z,20.40
2022-08-17T23:19:15.459Z,18.58
2022-08-17T23:21:45.011Z,21.50
2022-08-17T23:24:17.284Z,21.27
2022-08-17T23:26:43.806Z,22.08
2022-08-17T23:29:10.292Z,18.65
2022-08-17T23:31:38.682Z,20.05
2022-08-17T23:34:10.045Z,20.08
2022-08-17T23:36:36.561Z,20.80
2022-08-17T23:39:05.340Z,21.98
2022-08-17T23:41:35.210Z,20.00
2022-08-17T23:44:04.467Z,18.42
2022-08-17T23:46:31.067Z,22.20
2022-08-17T23:48:57.504Z,19.67
2022-08-17T23:51:28.401Z,21.15
2022-08-17T23:53:58.260Z,19.85
2022-08-17T23:56:25.763Z,20.48
2022-08-17T23:58:54.829Z,19.98
